Terminal Aerodrome Forecast
Issued by NWS Chicago, IL

Home | Current Version | Previous Version | Graphics & Text | Print | Product List | Glossary On
Versions: 1 2 3 4 5 6 7 8 9 10 11 12 13 14 15 16 17 18 19 20 21 22 23 24 25 26 27 28 29
437
FTUS43 KLOT 260530
TAFRFD
TAF
KRFD 260530Z 2606/2706 16012KT P6SM SCT060 OVC120
     FM261100 19012G18KT 6SM -SHRA VCTS SCT025 OVC040CB
     FM261500 19012G18KT P6SM BKN025
     FM262100 25012KT 5SM SHRA VCTS BKN015 OVC035CB
     FM270100 32010KT 3SM SHRA BR OVC008=

USA.gov is the U.S. government's official web portal to all federal, state and local government web resources and services.